Time;durP1;ratioP1;P1;durP2;ratioP2;P2;SDS_P1;SDS_P2;PMS_P1;PMS_P2;Temp;Humidity;BMP_temperature;BMP_pressure;BME280_temperature;BME280_humidity;BME280_pressure;Samples;Min_cycle;Max_cycle;Signal;HPM_P1;HPM_P2
2021/07/24 16:18:26;;;;;;;15.93;14.43;;;28.80;59.70;;;;;;6292036;22;1322589;-62
2021/07/24 16:20:52;;;;;;;14.50;13.10;;;28.70;60.00;;;;;;6247115;22;20003;-55
2021/07/24 16:23:17;;;;;;;16.25;13.57;;;28.70;59.90;;;;;;6275221;22;20012;-59
2021/07/24 16:25:43;;;;;;;15.82;13.38;;;28.60;59.80;;;;;;6275038;22;20012;-60
2021/07/24 16:28:09;;;;;;;15.02;13.40;;;28.60;59.70;;;;;;6274263;22;20090;-59
2021/07/24 16:30:38;;;;;;;14.82;13.40;;;28.60;59.60;;;;;;6275167;22;20329;-60
2021/07/24 16:33:05;;;;;;;17.40;14.95;;;28.60;59.70;;;;;;6275512;22;20008;-59
2021/07/24 16:35:30;;;;;;;16.80;14.05;;;28.50;59.40;;;;;;6274931;22;20050;-59
2021/07/24 16:37:56;;;;;;;16.50;14.80;;;28.50;59.90;;;;;;6275198;22;20380;-60
2021/07/24 16:40:21;;;;;;;19.23;14.38;;;28.50;59.50;;;;;;6275147;22;20004;-58
2021/07/24 16:42:50;;;;;;;18.63;14.32;;;28.50;59.60;;;;;;6274230;22;20632;-59
2021/07/24 16:45:16;;;;;;;14.70;13.15;;;28.40;59.30;;;;;;6274928;22;20011;-62
2021/07/24 16:47:41;;;;;;;14.82;13.43;;;28.40;59.00;;;;;;6274304;22;19999;-58
2021/07/24 16:50:07;;;;;;;15.02;13.43;;;28.40;58.60;;;;;;6275116;22;20445;-60
2021/07/24 16:52:33;;;;;;;14.48;13.07;;;28.40;58.60;;;;;;6275008;22;20066;-57
2021/07/24 16:55:01;;;;;;;15.93;13.57;;;28.40;58.30;;;;;;6274129;22;20000;-59
2021/07/24 16:57:27;;;;;;;15.25;13.85;;;28.30;58.00;;;;;;6252992;22;20034;-61
2021/07/24 16:59:52;;;;;;;13.68;12.38;;;28.40;58.20;;;;;;6277008;22;20341;-61
2021/07/24 17:02:20;;;;;;;15.98;13.65;;;28.30;58.40;;;;;;6285630;22;20000;-56
2021/07/24 17:04:45;;;;;;;15.63;14.02;;;28.30;58.60;;;;;;6275351;22;20015;-57
2021/07/24 17:07:11;;;;;;;19.40;17.40;;;28.30;58.60;;;;;;6274852;22;20003;-59
2021/07/24 17:09:36;;;;;;;17.60;15.77;;;28.30;58.70;;;;;;6275291;22;20484;-59
2021/07/24 17:12:02;;;;;;;18.33;14.90;;;28.30;59.40;;;;;;6276729;22;20343;-55
2021/07/24 17:14:28;;;;;;;15.20;13.70;;;28.30;58.90;;;;;;6250517;22;20054;-56
2021/07/24 17:16:53;;;;;;;15.38;13.77;;;28.30;59.10;;;;;;6276462;22;20000;-59
2021/07/24 17:19:19;;;;;;;15.18;13.55;;;28.30;59.10;;;;;;6276139;22;20279;-58
2021/07/24 17:21:45;;;;;;;15.25;13.80;;;28.30;59.10;;;;;;6249604;22;20012;-62
2021/07/24 17:24:12;;;;;;;19.40;14.73;;;28.20;58.90;;;;;;6275703;22;20007;-59
2021/07/24 17:26:37;;;;;;;15.98;12.68;;;28.20;58.60;;;;;;6247156;22;20342;-53
2021/07/24 17:29:03;;;;;;;14.48;13.05;;;28.20;58.70;;;;;;6274786;22;20000;-57
2021/07/24 17:31:28;;;;;;;14.95;13.55;;;28.20;58.80;;;;;;6274907;22;20000;-52
2021/07/24 17:33:56;;;;;;;15.00;13.13;;;28.20;59.00;;;;;;6274609;22;20011;-51
2021/07/24 17:36:21;;;;;;;15.07;13.63;;;28.20;59.80;;;;;;6273960;22;20325;-56
2021/07/24 17:38:47;;;;;;;15.35;13.68;;;28.20;59.30;;;;;;6274081;22;20031;-56
2021/07/24 17:41:15;;;;;;;14.70;12.90;;;28.20;59.30;;;;;;6275135;22;20003;-51
2021/07/24 17:43:42;;;;;;;15.45;13.82;;;28.20;59.20;;;;;;6274678;22;20004;-55
2021/07/24 17:46:08;;;;;;;16.85;11.88;;;28.20;58.90;;;;;;6273385;22;20007;-54
2021/07/24 17:48:34;;;;;;;14.95;12.45;;;28.20;58.70;;;;;;6273179;22;20004;-51
2021/07/24 17:51:00;;;;;;;18.02;13.90;;;28.30;58.60;;;;;;6275527;22;20425;-57
2021/07/24 17:53:27;;;;;;;13.95;12.55;;;28.30;58.60;;;;;;6277741;22;20010;-51
2021/07/24 17:55:56;;;;;;;14.02;12.63;;;28.50;59.30;;;;;;6276570;22;20134;-57
2021/07/24 17:58:23;;;;;;;15.13;12.00;;;28.60;58.50;;;;;;6277014;22;20000;-57
2021/07/24 18:00:49;;;;;;;14.20;12.63;;;28.80;58.40;;;;;;6277923;22;20349;-56
2021/07/24 18:03:16;;;;;;;14.80;13.25;;;28.90;58.50;;;;;;6277037;22;19999;-56
2021/07/24 18:05:43;;;;;;;14.93;13.00;;;29.00;58.70;;;;;;6274409;22;20042;-55
2021/07/24 18:08:09;;;;;;;16.60;13.95;;;29.20;58.50;;;;;;6276264;22;20056;-58
2021/07/24 18:10:37;;;;;;;14.73;13.02;;;29.50;58.10;;;;;;6277023;22;20023;-56
2021/07/24 18:13:04;;;;;;;16.50;13.68;;;29.50;57.70;;;;;;6275005;22;20094;-57
2021/07/24 18:15:30;;;;;;;16.10;13.45;;;29.60;58.10;;;;;;6276163;22;20026;-52
2021/07/24 18:17:56;;;;;;;16.85;13.68;;;30.00;57.20;;;;;;6274775;22;20281;-55
2021/07/24 18:20:22;;;;;;;15.45;13.95;;;29.90;56.90;;;;;;6276101;22;20464;-52
2021/07/24 18:22:49;;;;;;;17.50;15.70;;;29.60;57.10;;;;;;6276450;22;20004;-52
2021/07/24 18:25:14;;;;;;;16.95;14.98;;;29.40;57.70;;;;;;6276541;22;20441;-61
2021/07/24 18:27:40;;;;;;;17.17;14.52;;;29.20;57.90;;;;;;6275897;22;20050;-55
2021/07/24 18:30:06;;;;;;;19.90;16.52;;;29.20;58.50;;;;;;6248935;22;20012;-57
2021/07/24 18:32:34;;;;;;;19.52;15.32;;;29.70;58.10;;;;;;6275194;22;20460;-55
2021/07/24 18:35:00;;;;;;;19.08;13.75;;;30.10;57.60;;;;;;6275830;22;20010;-57
2021/07/24 18:37:26;;;;;;;14.80;13.25;;;30.20;57.00;;;;;;6275377;22;20012;-50
2021/07/24 18:39:52;;;;;;;18.48;15.32;;;30.10;57.00;;;;;;6275634;22;20012;-53
2021/07/24 18:42:17;;;;;;;17.23;14.93;;;29.80;57.00;;;;;;6276089;22;20062;-56
2021/07/24 18:44:43;;;;;;;14.40;12.32;;;29.40;57.60;;;;;;6275477;22;20030;-56
2021/07/24 18:47:08;;;;;;;14.77;13.02;;;29.00;58.20;;;;;;6275700;22;20004;-52
2021/07/24 18:49:34;;;;;;;15.82;13.00;;;28.80;59.00;;;;;;6275654;22;20015;-56
2021/07/24 18:52:00;;;;;;;15.10;13.55;;;28.50;59.50;;;;;;6274766;22;20333;-55
2021/07/24 18:54:25;;;;;;;15.05;13.45;;;28.30;60.10;;;;;;6277500;22;20014;-58
2021/07/24 18:56:51;;;;;;;15.50;13.88;;;28.20;60.60;;;;;;6248395;22;20341;-53
2021/07/24 18:59:17;;;;;;;16.50;14.80;;;28.10;61.00;;;;;;6276896;22;20034;-57
2021/07/24 19:01:43;;;;;;;16.38;14.75;;;28.00;61.20;;;;;;6276990;22;20003;-50
2021/07/24 19:04:08;;;;;;;18.00;13.98;;;27.90;61.30;;;;;;6276215;22;20027;-55
2021/07/24 19:06:34;;;;;;;16.05;13.25;;;27.80;61.70;;;;;;6275771;22;20445;-51
2021/07/24 19:08:59;;;;;;;16.88;14.40;;;27.70;61.80;;;;;;6274378;22;20004;-59
2021/07/24 19:11:28;;;;;;;19.67;14.30;;;27.70;62.10;;;;;;6274589;22;20011;-52
2021/07/24 19:13:53;;;;;;;16.27;13.48;;;27.60;62.30;;;;;;6276041;22;20019;-58
2021/07/24 19:16:20;;;;;;;16.20;13.57;;;27.50;62.60;;;;;;6274249;22;20358;-55
2021/07/24 19:18:47;;;;;;;18.73;16.45;;;27.40;62.90;;;;;;6276673;22;20138;-59
2021/07/24 19:21:26;;;;;;;21.92;16.00;;;27.30;63.00;;;;;;6276457;22;19999;-56
2021/07/24 19:23:53;;;;;;;16.98;14.95;;;27.30;63.20;;;;;;6276280;22;20095;-59
2021/07/24 19:26:21;;;;;;;16.33;13.70;;;27.30;63.60;;;;;;6276209;22;20003;-60
2021/07/24 19:28:48;;;;;;;16.10;14.45;;;27.20;63.80;;;;;;6276677;22;20018;-50
2021/07/24 19:31:13;;;;;;;42.80;32.30;;;27.10;64.00;;;;;;6278151;22;20078;-52
2021/07/24 19:33:39;;;;;;;19.65;17.35;;;27.10;64.30;;;;;;6277606;22;20011;-54
2021/07/24 19:36:06;;;;;;;21.27;15.32;;;27.10;64.70;;;;;;6279007;22;20381;-53
2021/07/24 19:38:31;;;;;;;19.52;15.43;;;27.00;64.90;;;;;;6277298;22;20082;-56
2021/07/24 19:40:57;;;;;;;19.58;15.93;;;26.90;65.20;;;;;;6249326;22;20032;-58
2021/07/24 19:43:22;;;;;;;16.83;15.02;;;26.90;65.40;;;;;;6276373;22;20338;-58
2021/07/24 19:45:48;;;;;;;22.17;15.57;;;26.80;65.60;;;;;;6277709;22;20002;-56
2021/07/24 19:48:14;;;;;;;16.92;14.57;;;26.80;65.90;;;;;;6278869;22;20004;-58
2021/07/24 19:50:40;;;;;;;17.00;15.30;;;26.80;66.00;;;;;;6279490;22;20019;-56
2021/07/24 19:53:05;;;;;;;16.08;14.35;;;26.70;66.10;;;;;;6275298;22;20027;-58
2021/07/24 19:55:34;;;;;;;16.15;14.40;;;26.60;66.40;;;;;;6275232;22;20516;-57
2021/07/24 19:58:00;;;;;;;20.10;15.50;;;26.60;66.60;;;;;;6275701;22;20454;-58
2021/07/24 20:00:26;;;;;;;17.35;15.25;;;26.60;66.70;;;;;;6275864;22;19999;-55
2021/07/24 20:02:52;;;;;;;18.95;15.45;;;26.50;66.80;;;;;;6277168;22;20342;-57
2021/07/24 20:05:23;;;;;;;22.25;15.75;;;26.60;67.00;;;;;;6280022;22;20015;-57
2021/07/24 20:07:53;;;;;;;17.67;15.38;;;26.50;67.00;;;;;;6279614;22;20018;-56
2021/07/24 20:10:19;;;;;;;17.67;14.90;;;26.50;67.10;;;;;;6277807;22;20011;-56
2021/07/24 20:12:44;;;;;;;16.27;14.68;;;26.50;67.30;;;;;;6277515;22;20012;-55
2021/07/24 20:15:12;;;;;;;16.52;14.82;;;26.50;67.40;;;;;;6275841;22;20103;-53
2021/07/24 20:17:37;;;;;;;17.20;15.52;;;26.40;67.50;;;;;;6275432;22;20000;-57
2021/07/24 20:20:03;;;;;;;17.23;15.20;;;26.40;67.70;;;;;;6275962;22;20058;-56
2021/07/24 20:22:29;;;;;;;17.00;15.40;;;26.40;67.90;;;;;;6275818;22;20000;-57
2021/07/24 20:24:55;;;;;;;18.48;15.88;;;26.30;68.00;;;;;;6249602;22;20079;-56
2021/07/24 20:27:20;;;;;;;19.13;14.73;;;26.30;68.20;;;;;;6249300;22;20054;-55
2021/07/24 20:29:46;;;;;;;16.48;14.73;;;26.30;68.30;;;;;;6276966;22;20012;-59
2021/07/24 20:32:12;;;;;;;16.17;14.32;;;26.30;68.10;;;;;;6276285;22;20319;-57
2021/07/24 20:34:37;;;;;;;15.77;14.27;;;26.20;68.00;;;;;;6275662;22;20094;-53
2021/07/24 20:37:03;;;;;;;17.83;14.57;;;26.10;68.00;;;;;;6275588;22;20004;-53
2021/07/24 20:39:29;;;;;;;15.07;13.52;;;26.10;68.10;;;;;;6249618;22;20031;-56
2021/07/24 20:41:55;;;;;;;16.63;14.82;;;26.10;68.20;;;;;;6274407;22;20034;-61
2021/07/24 20:44:20;;;;;;;16.17;14.27;;;26.10;68.30;;;;;;6275494;22;20068;-56
2021/07/24 20:46:46;;;;;;;17.33;14.82;;;26.00;67.90;;;;;;6278518;22;20516;-55
2021/07/24 20:49:12;;;;;;;15.73;13.63;;;25.90;67.80;;;;;;6276135;22;20094;-59
2021/07/24 20:51:40;;;;;;;17.33;14.57;;;25.80;68.50;;;;;;6275720;22;20082;-54
2021/07/24 20:54:06;;;;;;;17.58;14.45;;;25.70;68.90;;;;;;6278422;22;20429;-52
2021/07/24 20:56:32;;;;;;;21.33;17.70;;;25.70;69.20;;;;;;6275468;22;20042;-60
2021/07/24 20:59:02;;;;;;;18.58;15.77;;;25.70;69.30;;;;;;6275971;22;20003;-60
2021/07/24 21:01:28;;;;;;;17.80;16.08;;;25.70;69.40;;;;;;6275053;22;20004;-58
2021/07/24 21:03:54;;;;;;;17.27;15.40;;;25.70;69.60;;;;;;6277643;22;20011;-57
2021/07/24 21:06:24;;;;;;;20.77;16.45;;;25.70;69.60;;;;;;6277231;22;20000;-54
2021/07/24 21:08:50;;;;;;;17.77;15.98;;;25.70;69.60;;;;;;6279399;22;20000;-57
2021/07/24 21:11:16;;;;;;;19.77;16.92;;;25.70;70.40;;;;;;6275509;22;20654;-50
2021/07/24 21:13:43;;;;;;;20.23;16.42;;;25.70;69.90;;;;;;6274747;22;20004;-50
2021/07/24 21:16:18;;;;;;;25.10;16.55;;;25.70;69.90;;;;;;6276370;22;20000;-52
2021/07/24 21:18:44;;;;;;;18.05;16.13;;;25.70;69.70;;;;;;6275804;22;20042;-56
2021/07/24 21:21:14;;;;;;;18.92;14.82;;;25.70;69.70;;;;;;6276287;22;20054;-54
2021/07/24 21:23:40;;;;;;;17.25;14.70;;;25.70;69.50;;;;;;6277027;22;20003;-52
2021/07/24 21:26:06;;;;;;;16.73;14.02;;;25.70;69.40;;;;;;6275492;22;20065;-54
2021/07/24 21:28:33;;;;;;;21.48;14.15;;;25.70;69.30;;;;;;6279223;22;20437;-52
2021/07/24 21:30:58;;;;;;;16.75;14.32;;;25.70;69.30;;;;;;6276528;22;20004;-55
2021/07/24 21:33:24;;;;;;;19.05;14.55;;;25.70;69.20;;;;;;6276946;22;20012;-52
2021/07/24 21:35:50;;;;;;;16.80;13.32;;;25.60;69.10;;;;;;6278114;22;20378;-56
2021/07/24 21:38:16;;;;;;;15.90;13.93;;;25.60;69.20;;;;;;6276238;22;20004;-51
2021/07/24 21:40:42;;;;;;;16.88;15.07;;;25.60;69.20;;;;;;6275015;22;20008;-56
2021/07/24 21:43:09;;;;;;;19.73;15.75;;;25.60;69.30;;;;;;6277879;22;20003;-56
2021/07/24 21:45:35;;;;;;;17.50;14.95;;;25.60;69.40;;;;;;6274878;22;20043;-52
2021/07/24 21:48:00;;;;;;;18.15;14.85;;;25.60;69.40;;;;;;6273699;22;20459;-55
2021/07/24 21:50:26;;;;;;;16.98;14.40;;;25.60;69.50;;;;;;6272433;22;20039;-56
2021/07/24 21:52:52;;;;;;;16.50;14.80;;;25.50;69.60;;;;;;6276423;22;19996;-57
2021/07/24 21:55:18;;;;;;;19.80;14.43;;;25.50;69.80;;;;;;6276232;22;20000;-56
2021/07/24 21:57:43;;;;;;;17.15;14.80;;;25.50;70.00;;;;;;6274610;22;19995;-59
2021/07/24 22:00:22;;;;;;;16.45;14.40;;;25.40;70.30;;;;;;6274663;22;20465;-52
2021/07/24 22:02:49;;;;;;;18.33;15.18;;;25.40;70.60;;;;;;6274841;22;20126;-53
2021/07/24 22:05:19;;;;;;;17.73;15.38;;;25.30;70.70;;;;;;6273403;22;20073;-56
2021/07/24 22:07:44;;;;;;;19.33;14.77;;;25.30;70.80;;;;;;6274647;22;20010;-51
2021/07/24 22:10:11;;;;;;;16.80;14.35;;;25.30;71.00;;;;;;6274995;22;20003;-56
2021/07/24 22:12:41;;;;;;;19.40;14.70;;;25.30;71.00;;;;;;6274657;22;20000;-56
2021/07/24 22:15:07;;;;;;;18.23;14.65;;;25.30;71.20;;;;;;6272900;22;20003;-55
2021/07/24 22:17:33;;;;;;;15.88;14.32;;;25.20;71.10;;;;;;6272658;22;20008;-56
2021/07/24 22:19:59;;;;;;;17.70;14.90;;;25.20;71.20;;;;;;6273092;22;20022;-54
2021/07/24 22:22:25;;;;;;;17.63;14.88;;;25.20;71.20;;;;;;6275422;22;20007;-51
2021/07/24 22:24:50;;;;;;;18.88;15.52;;;25.20;71.30;;;;;;6274597;22;20404;-55
2021/07/24 22:27:16;;;;;;;18.58;15.70;;;25.20;71.40;;;;;;6274602;22;20008;-50
2021/07/24 22:29:41;;;;;;;18.10;14.73;;;25.20;71.50;;;;;;6275664;22;20392;-53
2021/07/24 22:32:09;;;;;;;16.52;14.88;;;25.10;71.60;;;;;;6247806;22;20086;-53
2021/07/24 22:34:34;;;;;;;19.30;16.23;;;25.20;71.70;;;;;;6274532;22;20012;-56
2021/07/24 22:37:00;;;;;;;19.52;15.60;;;25.10;71.60;;;;;;6274236;22;20193;-52
2021/07/24 22:39:26;;;;;;;17.23;15.40;;;25.10;71.70;;;;;;6276138;22;20074;-51
2021/07/24 22:41:51;;;;;;;16.75;15.05;;;25.10;71.60;;;;;;6277322;22;20008;-51
2021/07/24 22:44:17;;;;;;;17.50;15.68;;;25.10;71.50;;;;;;6276765;22;20031;-57
2021/07/24 22:46:44;;;;;;;17.88;15.13;;;25.10;71.50;;;;;;6275888;22;20004;-51
2021/07/24 22:49:10;;;;;;;17.45;15.57;;;25.10;71.60;;;;;;6276140;22;20073;-51
2021/07/24 22:51:35;;;;;;;15.85;14.20;;;25.10;71.70;;;;;;6276302;22;19999;-52
2021/07/24 22:54:01;;;;;;;16.50;14.80;;;25.00;71.70;;;;;;6275891;22;20008;-60
2021/07/24 22:56:26;;;;;;;16.83;15.13;;;25.10;71.60;;;;;;6276151;22;20003;-53
2021/07/24 22:58:52;;;;;;;17.88;16.00;;;25.10;72.20;;;;;;6275937;22;20039;-57
2021/07/24 23:01:17;;;;;;;17.45;15.05;;;25.10;71.70;;;;;;6276629;22;20004;-59
2021/07/24 23:03:43;;;;;;;19.20;17.40;;;25.20;71.80;;;;;;6276038;22;20031;-59
2021/07/24 23:06:09;;;;;;;22.23;18.10;;;25.20;72.20;;;;;;6275976;22;20077;-58
2021/07/24 23:08:34;;;;;;;20.38;17.23;;;25.10;72.20;;;;;;6276478;22;20042;-53
2021/07/24 23:11:00;;;;;;;22.45;18.10;;;25.00;72.30;;;;;;6276105;22;20030;-55
2021/07/24 23:13:26;;;;;;;21.38;19.13;;;25.00;72.50;;;;;;6275960;22;20434;-56
2021/07/24 23:15:51;;;;;;;18.98;17.08;;;25.00;72.70;;;;;;6276833;22;20026;-56
2021/07/24 23:18:17;;;;;;;17.15;15.35;;;24.90;72.80;;;;;;6275189;22;20023;-59
2021/07/24 23:20:46;;;;;;;17.40;15.75;;;24.80;73.20;;;;;;6277549;22;20377;-59
2021/07/24 23:23:11;;;;;;;19.95;17.95;;;24.80;73.60;;;;;;6248622;22;20042;-59
2021/07/24 23:25:37;;;;;;;18.80;17.00;;;24.80;73.90;;;;;;6275956;22;20011;-56
2021/07/24 23:28:03;;;;;;;19.77;16.88;;;24.70;74.70;;;;;;6248939;22;20018;-57
2021/07/24 23:30:29;;;;;;;19.65;16.35;;;24.70;74.20;;;;;;6275520;22;20351;-52
2021/07/24 23:32:54;;;;;;;19.08;16.58;;;24.80;74.10;;;;;;6274024;22;20033;-55
2021/07/24 23:35:20;;;;;;;18.20;16.42;;;24.70;74.10;;;;;;6275067;22;19996;-54
2021/07/24 23:37:45;;;;;;;19.65;16.80;;;24.80;74.20;;;;;;6274749;22;20027;-54
2021/07/24 23:40:14;;;;;;;19.58;17.45;;;24.70;74.20;;;;;;6275535;22;20445;-58
2021/07/24 23:42:41;;;;;;;21.63;18.13;;;24.80;74.40;;;;;;6275556;22;20003;-58
2021/07/24 23:45:07;;;;;;;18.90;16.73;;;24.80;74.50;;;;;;6275038;22;20003;-55
2021/07/24 23:47:33;;;;;;;21.17;17.25;;;24.70;74.70;;;;;;6275938;22;20007;-55
2021/07/24 23:50:01;;;;;;;19.13;17.02;;;24.70;75.00;;;;;;6276471;22;20103;-55
2021/07/24 23:52:27;;;;;;;18.70;14.75;;;24.70;75.20;;;;;;6276230;22;19999;-52
2021/07/24 23:54:52;;;;;;;18.63;16.73;;;24.70;74.70;;;;;;6275576;22;20050;-54
2021/07/24 23:57:18;;;;;;;19.48;17.25;;;24.70;74.50;;;;;;6275562;22;20000;-55
2021/07/24 23:59:43;;;;;;;17.85;15.98;;;24.60;74.50;;;;;;6276108;22;20008;-52
